sensor_id;sensor_type;location;lat;lon;timestamp;temperature;humidity
17827;DHT22;9038;48.208;16.308;2023-12-07T00:00:10;5.10;99.90
17827;DHT22;9038;48.208;16.308;2023-12-07T00:02:12;5.20;99.90
17827;DHT22;9038;48.208;16.308;2023-12-07T00:04:14;5.20;99.90
17827;DHT22;9038;48.208;16.308;2023-12-07T00:06:15;5.30;99.90
17827;DHT22;9038;48.208;16.308;2023-12-07T00:08:17;5.40;99.90
17827;DHT22;9038;48.208;16.308;2023-12-07T00:10:19;5.30;99.90
17827;DHT22;9038;48.208;16.308;2023-12-07T00:12:20;5.20;99.90
17827;DHT22;9038;48.208;16.308;2023-12-07T00:14:22;5.30;99.90
17827;DHT22;9038;48.208;16.308;2023-12-07T00:16:25;5.20;99.90
17827;DHT22;9038;48.208;16.308;2023-12-07T00:18:27;5.30;99.90
17827;DHT22;9038;48.208;16.308;2023-12-07T00:20:29;5.30;99.90
17827;DHT22;9038;48.208;16.308;2023-12-07T00:22:30;5.20;99.90
17827;DHT22;9038;48.208;16.308;2023-12-07T00:24:32;5.20;99.90
17827;DHT22;9038;48.208;16.308;2023-12-07T00:26:33;5.10;99.90
17827;DHT22;9038;48.208;16.308;2023-12-07T00:28:35;5.20;99.90
17827;DHT22;9038;48.208;16.308;2023-12-07T00:30:36;5.10;99.90
17827;DHT22;9038;48.208;16.308;2023-12-07T00:32:39;5.20;99.90
17827;DHT22;9038;48.208;16.308;2023-12-07T00:34:44;5.20;99.90
17827;DHT22;9038;48.208;16.308;2023-12-07T00:36:46;5.20;99.90
17827;DHT22;9038;48.208;16.308;2023-12-07T00:38:48;5.20;99.90
17827;DHT22;9038;48.208;16.308;2023-12-07T00:40:50;5.10;99.90
17827;DHT22;9038;48.208;16.308;2023-12-07T00:42:51;5.10;99.90
17827;DHT22;9038;48.208;16.308;2023-12-07T00:44:53;5.20;99.90
17827;DHT22;9038;48.208;16.308;2023-12-07T00:46:54;5.10;99.90
17827;DHT22;9038;48.208;16.308;2023-12-07T00:48:57;5.20;99.90
17827;DHT22;9038;48.208;16.308;2023-12-07T00:50:59;5.20;99.90
17827;DHT22;9038;48.208;16.308;2023-12-07T00:53:01;5.20;99.90
17827;DHT22;9038;48.208;16.308;2023-12-07T00:55:02;5.20;99.90
17827;DHT22;9038;48.208;16.308;2023-12-07T00:57:04;5.10;99.90
17827;DHT22;9038;48.208;16.308;2023-12-07T00:59:06;5.20;99.90
17827;DHT22;9038;48.208;16.308;2023-12-07T01:01:08;5.10;99.90
17827;DHT22;9038;48.208;16.308;2023-12-07T01:03:10;5.30;99.90
17827;DHT22;9038;48.208;16.308;2023-12-07T01:05:13;5.10;99.90
17827;DHT22;9038;48.208;16.308;2023-12-07T01:07:15;5.10;99.90
17827;DHT22;9038;48.208;16.308;2023-12-07T01:09:17;5.10;99.90
17827;DHT22;9038;48.208;16.308;2023-12-07T01:11:19;5.10;99.90
17827;DHT22;9038;48.208;16.308;2023-12-07T01:13:20;5.10;99.90
17827;DHT22;9038;48.208;16.308;2023-12-07T01:15:22;5.20;99.90
17827;DHT22;9038;48.208;16.308;2023-12-07T01:17:24;5.10;99.90
17827;DHT22;9038;48.208;16.308;2023-12-07T01:19:26;5.10;99.90
17827;DHT22;9038;48.208;16.308;2023-12-07T01:21:29;5.10;99.90
17827;DHT22;9038;48.208;16.308;2023-12-07T01:23:31;5.10;99.90
17827;DHT22;9038;48.208;16.308;2023-12-07T01:25:33;4.70;99.90
17827;DHT22;9038;48.208;16.308;2023-12-07T01:27:35;5.10;99.90
17827;DHT22;9038;48.208;16.308;2023-12-07T01:29:37;5.10;99.90
17827;DHT22;9038;48.208;16.308;2023-12-07T01:31:38;5.00;99.90
17827;DHT22;9038;48.208;16.308;2023-12-07T01:33:40;5.00;99.90
17827;DHT22;9038;48.208;16.308;2023-12-07T01:35:42;5.00;99.90
17827;DHT22;9038;48.208;16.308;2023-12-07T01:37:44;5.00;99.90
17827;DHT22;9038;48.208;16.308;2023-12-07T01:39:46;5.10;99.90
17827;DHT22;9038;48.208;16.308;2023-12-07T01:41:50;5.00;99.90
17827;DHT22;9038;48.208;16.308;2023-12-07T01:43:53;5.00;99.90
17827;DHT22;9038;48.208;16.308;2023-12-07T01:45:56;4.90;99.90
17827;DHT22;9038;48.208;16.308;2023-12-07T01:47:58;4.90;99.90
17827;DHT22;9038;48.208;16.308;2023-12-07T01:50:00;4.80;99.90
17827;DHT22;9038;48.208;16.308;2023-12-07T01:52:05;4.90;99.90
17827;DHT22;9038;48.208;16.308;2023-12-07T01:54:09;4.80;99.90
17827;DHT22;9038;48.208;16.308;2023-12-07T01:56:11;4.80;99.90
17827;DHT22;9038;48.208;16.308;2023-12-07T01:58:13;4.70;99.90
17827;DHT22;9038;48.208;16.308;2023-12-07T02:00:16;4.80;99.90
17827;DHT22;9038;48.208;16.308;2023-12-07T02:02:18;4.70;99.90
17827;DHT22;9038;48.208;16.308;2023-12-07T02:04:20;4.70;99.90
17827;DHT22;9038;48.208;16.308;2023-12-07T02:06:22;4.60;99.90
17827;DHT22;9038;48.208;16.308;2023-12-07T02:08:23;4.80;99.90
17827;DHT22;9038;48.208;16.308;2023-12-07T02:10:26;4.60;99.90
17827;DHT22;9038;48.208;16.308;2023-12-07T02:12:28;4.70;99.90
17827;DHT22;9038;48.208;16.308;2023-12-07T02:14:30;4.60;99.90
17827;DHT22;9038;48.208;16.308;2023-12-07T02:16:37;4.70;99.90
17827;DHT22;9038;48.208;16.308;2023-12-07T02:18:44;4.70;99.90
17827;DHT22;9038;48.208;16.308;2023-12-07T02:20:55;4.70;99.90
17827;DHT22;9038;48.208;16.308;2023-12-07T02:23:01;4.70;99.90
17827;DHT22;9038;48.208;16.308;2023-12-07T02:25:07;4.60;99.90
17827;DHT22;9038;48.208;16.308;2023-12-07T02:27:10;4.60;99.90
17827;DHT22;9038;48.208;16.308;2023-12-07T02:29:12;4.70;99.90
17827;DHT22;9038;48.208;16.308;2023-12-07T02:31:13;4.70;99.90
17827;DHT22;9038;48.208;16.308;2023-12-07T02:33:15;4.60;99.90
17827;DHT22;9038;48.208;16.308;2023-12-07T02:35:17;4.60;99.90
17827;DHT22;9038;48.208;16.308;2023-12-07T02:37:21;4.70;99.90
17827;DHT22;9038;48.208;16.308;2023-12-07T02:39:23;4.70;99.90
17827;DHT22;9038;48.208;16.308;2023-12-07T02:41:26;4.70;99.90
17827;DHT22;9038;48.208;16.308;2023-12-07T02:43:29;4.70;99.90
17827;DHT22;9038;48.208;16.308;2023-12-07T02:45:31;4.70;99.90
17827;DHT22;9038;48.208;16.308;2023-12-07T02:47:33;4.60;99.90
17827;DHT22;9038;48.208;16.308;2023-12-07T02:49:36;4.60;99.90
17827;DHT22;9038;48.208;16.308;2023-12-07T02:51:37;4.50;99.90
17827;DHT22;9038;48.208;16.308;2023-12-07T02:53:39;4.60;99.90
17827;DHT22;9038;48.208;16.308;2023-12-07T02:55:41;4.60;99.90
17827;DHT22;9038;48.208;16.308;2023-12-07T02:57:43;4.60;99.90
17827;DHT22;9038;48.208;16.308;2023-12-07T02:59:47;4.50;99.90
17827;DHT22;9038;48.208;16.308;2023-12-07T03:01:49;4.50;99.90
17827;DHT22;9038;48.208;16.308;2023-12-07T03:03:51;4.50;99.90
17827;DHT22;9038;48.208;16.308;2023-12-07T03:05:52;4.40;99.90
17827;DHT22;9038;48.208;16.308;2023-12-07T03:07:54;4.50;99.90
17827;DHT22;9038;48.208;16.308;2023-12-07T03:09:56;4.50;99.90
17827;DHT22;9038;48.208;16.308;2023-12-07T03:11:58;4.50;99.90
17827;DHT22;9038;48.208;16.308;2023-12-07T03:14:00;4.60;99.90
17827;DHT22;9038;48.208;16.308;2023-12-07T03:16:08;4.40;99.90
17827;DHT22;9038;48.208;16.308;2023-12-07T03:18:10;4.40;99.90
17827;DHT22;9038;48.208;16.308;2023-12-07T03:20:12;4.60;99.90
17827;DHT22;9038;48.208;16.308;2023-12-07T03:22:14;4.40;99.90
17827;DHT22;9038;48.208;16.308;2023-12-07T03:24:16;4.50;99.90
17827;DHT22;9038;48.208;16.308;2023-12-07T03:26:18;4.60;99.90
17827;DHT22;9038;48.208;16.308;2023-12-07T03:28:19;4.50;99.90
17827;DHT22;9038;48.208;16.308;2023-12-07T03:30:21;4.50;99.90
17827;DHT22;9038;48.208;16.308;2023-12-07T03:32:24;4.50;99.90
17827;DHT22;9038;48.208;16.308;2023-12-07T03:34:26;4.50;99.90
17827;DHT22;9038;48.208;16.308;2023-12-07T03:36:28;4.50;99.90
17827;DHT22;9038;48.208;16.308;2023-12-07T03:38:30;4.50;99.90
17827;DHT22;9038;48.208;16.308;2023-12-07T03:40:31;4.60;99.90
17827;DHT22;9038;48.208;16.308;2023-12-07T03:42:33;4.60;99.90
17827;DHT22;9038;48.208;16.308;2023-12-07T03:44:34;4.50;99.90
17827;DHT22;9038;48.208;16.308;2023-12-07T03:46:36;4.70;99.90
17827;DHT22;9038;48.208;16.308;2023-12-07T03:48:38;4.60;99.90
17827;DHT22;9038;48.208;16.308;2023-12-07T03:50:40;4.60;99.90
17827;DHT22;9038;48.208;16.308;2023-12-07T03:52:42;4.60;99.90
17827;DHT22;9038;48.208;16.308;2023-12-07T03:54:44;4.80;99.90
17827;DHT22;9038;48.208;16.308;2023-12-07T03:56:46;4.70;99.90
17827;DHT22;9038;48.208;16.308;2023-12-07T03:58:47;4.70;99.90
17827;DHT22;9038;48.208;16.308;2023-12-07T04:00:49;4.60;99.90
17827;DHT22;9038;48.208;16.308;2023-12-07T04:02:50;4.60;99.90
17827;DHT22;9038;48.208;16.308;2023-12-07T04:04:54;4.60;99.90
17827;DHT22;9038;48.208;16.308;2023-12-07T04:06:56;4.70;99.90
17827;DHT22;9038;48.208;16.308;2023-12-07T04:08:58;4.70;99.90
17827;DHT22;9038;48.208;16.308;2023-12-07T04:11:00;4.60;99.90
17827;DHT22;9038;48.208;16.308;2023-12-07T04:13:02;4.70;99.90
17827;DHT22;9038;48.208;16.308;2023-12-07T04:15:04;4.60;99.90
17827;DHT22;9038;48.208;16.308;2023-12-07T04:17:06;4.60;99.90
17827;DHT22;9038;48.208;16.308;2023-12-07T04:19:08;4.60;99.90
17827;DHT22;9038;48.208;16.308;2023-12-07T04:21:11;4.70;99.90
17827;DHT22;9038;48.208;16.308;2023-12-07T04:23:13;4.60;99.90
17827;DHT22;9038;48.208;16.308;2023-12-07T04:25:15;4.60;99.90
17827;DHT22;9038;48.208;16.308;2023-12-07T04:27:16;4.60;99.90
17827;DHT22;9038;48.208;16.308;2023-12-07T04:29:17;4.60;99.90
17827;DHT22;9038;48.208;16.308;2023-12-07T04:31:19;4.50;99.90
17827;DHT22;9038;48.208;16.308;2023-12-07T04:33:21;4.60;99.90
17827;DHT22;9038;48.208;16.308;2023-12-07T04:35:22;4.60;99.90
17827;DHT22;9038;48.208;16.308;2023-12-07T04:37:25;4.60;99.90
17827;DHT22;9038;48.208;16.308;2023-12-07T04:39:27;4.70;99.90
17827;DHT22;9038;48.208;16.308;2023-12-07T04:41:29;4.70;99.90
17827;DHT22;9038;48.208;16.308;2023-12-07T04:43:31;4.70;99.90
17827;DHT22;9038;48.208;16.308;2023-12-07T04:45:33;4.60;99.90
17827;DHT22;9038;48.208;16.308;2023-12-07T04:47:35;4.70;99.90
17827;DHT22;9038;48.208;16.308;2023-12-07T04:49:38;4.60;99.90
17827;DHT22;9038;48.208;16.308;2023-12-07T04:51:39;4.60;99.90
17827;DHT22;9038;48.208;16.308;2023-12-07T04:53:43;4.70;99.90
17827;DHT22;9038;48.208;16.308;2023-12-07T04:55:46;4.60;99.90
17827;DHT22;9038;48.208;16.308;2023-12-07T04:57:50;4.70;99.90
17827;DHT22;9038;48.208;16.308;2023-12-07T04:59:52;4.60;99.90
17827;DHT22;9038;48.208;16.308;2023-12-07T05:01:53;4.70;99.90
17827;DHT22;9038;48.208;16.308;2023-12-07T05:03:55;4.80;99.90
17827;DHT22;9038;48.208;16.308;2023-12-07T05:05:57;4.70;99.90
17827;DHT22;9038;48.208;16.308;2023-12-07T05:07:59;4.60;99.90
17827;DHT22;9038;48.208;16.308;2023-12-07T05:10:03;5.10;99.90
17827;DHT22;9038;48.208;16.308;2023-12-07T05:12:05;4.60;99.90
17827;DHT22;9038;48.208;16.308;2023-12-07T05:14:07;4.60;99.90
17827;DHT22;9038;48.208;16.308;2023-12-07T05:16:10;4.70;99.90
17827;DHT22;9038;48.208;16.308;2023-12-07T05:18:12;4.70;99.90
17827;DHT22;9038;48.208;16.308;2023-12-07T05:20:14;4.80;99.90
17827;DHT22;9038;48.208;16.308;2023-12-07T05:22:16;4.70;99.90
17827;DHT22;9038;48.208;16.308;2023-12-07T05:24:18;4.80;99.90
17827;DHT22;9038;48.208;16.308;2023-12-07T05:26:21;4.80;99.90
17827;DHT22;9038;48.208;16.308;2023-12-07T05:28:23;4.80;99.90
17827;DHT22;9038;48.208;16.308;2023-12-07T05:30:26;4.70;99.90
17827;DHT22;9038;48.208;16.308;2023-12-07T05:32:28;4.80;99.90
17827;DHT22;9038;48.208;16.308;2023-12-07T05:34:30;4.70;99.90
17827;DHT22;9038;48.208;16.308;2023-12-07T05:36:32;4.70;99.90
17827;DHT22;9038;48.208;16.308;2023-12-07T05:38:34;4.90;99.90
17827;DHT22;9038;48.208;16.308;2023-12-07T05:40:35;4.80;99.90
17827;DHT22;9038;48.208;16.308;2023-12-07T05:42:39;4.80;99.90
17827;DHT22;9038;48.208;16.308;2023-12-07T05:44:42;4.90;99.90
17827;DHT22;9038;48.208;16.308;2023-12-07T05:46:43;4.80;99.90
17827;DHT22;9038;48.208;16.308;2023-12-07T05:48:45;4.80;99.90
17827;DHT22;9038;48.208;16.308;2023-12-07T05:50:47;4.80;99.90
17827;DHT22;9038;48.208;16.308;2023-12-07T05:52:50;4.80;99.90
17827;DHT22;9038;48.208;16.308;2023-12-07T05:54:51;4.80;99.90
17827;DHT22;9038;48.208;16.308;2023-12-07T05:56:53;4.80;99.90
17827;DHT22;9038;48.208;16.308;2023-12-07T05:58:57;4.80;99.90
17827;DHT22;9038;48.208;16.308;2023-12-07T06:01:00;4.80;99.90
17827;DHT22;9038;48.208;16.308;2023-12-07T06:03:02;4.80;99.90
17827;DHT22;9038;48.208;16.308;2023-12-07T06:05:05;4.80;99.90
17827;DHT22;9038;48.208;16.308;2023-12-07T06:07:07;4.70;99.90
17827;DHT22;9038;48.208;16.308;2023-12-07T06:09:09;4.70;99.90
17827;DHT22;9038;48.208;16.308;2023-12-07T06:11:11;4.70;99.90
17827;DHT22;9038;48.208;16.308;2023-12-07T06:13:12;4.70;99.90
17827;DHT22;9038;48.208;16.308;2023-12-07T06:15:16;4.70;99.90
17827;DHT22;9038;48.208;16.308;2023-12-07T06:17:19;4.70;99.90
17827;DHT22;9038;48.208;16.308;2023-12-07T06:19:21;4.70;99.90
17827;DHT22;9038;48.208;16.308;2023-12-07T06:21:23;4.70;99.90
17827;DHT22;9038;48.208;16.308;2023-12-07T06:23:26;4.70;99.90
17827;DHT22;9038;48.208;16.308;2023-12-07T06:25:27;4.70;99.90
17827;DHT22;9038;48.208;16.308;2023-12-07T06:27:29;4.70;99.90
17827;DHT22;9038;48.208;16.308;2023-12-07T06:29:31;4.70;99.90
17827;DHT22;9038;48.208;16.308;2023-12-07T06:31:34;4.70;99.90
17827;DHT22;9038;48.208;16.308;2023-12-07T06:33:36;4.70;99.90
17827;DHT22;9038;48.208;16.308;2023-12-07T06:35:38;4.70;99.90
17827;DHT22;9038;48.208;16.308;2023-12-07T06:37:40;4.80;99.90
17827;DHT22;9038;48.208;16.308;2023-12-07T06:39:42;4.70;99.90
17827;DHT22;9038;48.208;16.308;2023-12-07T06:41:44;4.70;99.90
17827;DHT22;9038;48.208;16.308;2023-12-07T06:43:45;4.70;99.90
17827;DHT22;9038;48.208;16.308;2023-12-07T06:45:47;4.80;99.90
17827;DHT22;9038;48.208;16.308;2023-12-07T06:47:50;4.70;99.90
17827;DHT22;9038;48.208;16.308;2023-12-07T06:49:52;4.80;99.90
17827;DHT22;9038;48.208;16.308;2023-12-07T06:51:54;4.70;99.90
17827;DHT22;9038;48.208;16.308;2023-12-07T06:53:55;4.80;99.90
17827;DHT22;9038;48.208;16.308;2023-12-07T06:55:57;4.80;99.90
17827;DHT22;9038;48.208;16.308;2023-12-07T06:57:59;4.80;99.90
17827;DHT22;9038;48.208;16.308;2023-12-07T07:00:01;4.80;99.90
17827;DHT22;9038;48.208;16.308;2023-12-07T07:02:06;4.70;99.90
17827;DHT22;9038;48.208;16.308;2023-12-07T07:04:09;4.90;99.90
17827;DHT22;9038;48.208;16.308;2023-12-07T07:06:11;4.80;99.90
17827;DHT22;9038;48.208;16.308;2023-12-07T07:08:13;4.80;99.90
17827;DHT22;9038;48.208;16.308;2023-12-07T07:10:15;4.80;99.90
17827;DHT22;9038;48.208;16.308;2023-12-07T07:12:17;4.80;99.90
17827;DHT22;9038;48.208;16.308;2023-12-07T07:14:18;4.80;99.90
17827;DHT22;9038;48.208;16.308;2023-12-07T07:16:20;4.90;99.90
17827;DHT22;9038;48.208;16.308;2023-12-07T07:18:22;4.90;99.90
17827;DHT22;9038;48.208;16.308;2023-12-07T07:20:27;4.90;99.90
17827;DHT22;9038;48.208;16.308;2023-12-07T07:22:29;5.00;99.90
17827;DHT22;9038;48.208;16.308;2023-12-07T07:24:29;4.90;99.90
17827;DHT22;9038;48.208;16.308;2023-12-07T07:26:31;5.00;99.90
17827;DHT22;9038;48.208;16.308;2023-12-07T07:28:33;5.00;99.90
17827;DHT22;9038;48.208;16.308;2023-12-07T07:30:36;5.00;99.90
17827;DHT22;9038;48.208;16.308;2023-12-07T07:32:39;4.90;99.90
17827;DHT22;9038;48.208;16.308;2023-12-07T07:34:40;5.00;99.90
17827;DHT22;9038;48.208;16.308;2023-12-07T07:36:44;4.90;99.90
17827;DHT22;9038;48.208;16.308;2023-12-07T07:38:45;4.90;99.90
17827;DHT22;9038;48.208;16.308;2023-12-07T07:40:47;4.90;99.90
17827;DHT22;9038;48.208;16.308;2023-12-07T07:42:49;4.80;99.90
17827;DHT22;9038;48.208;16.308;2023-12-07T07:44:51;4.90;99.90
17827;DHT22;9038;48.208;16.308;2023-12-07T07:46:52;4.80;99.90
17827;DHT22;9038;48.208;16.308;2023-12-07T07:48:53;4.80;99.90
17827;DHT22;9038;48.208;16.308;2023-12-07T07:50:55;4.90;99.90
17827;DHT22;9038;48.208;16.308;2023-12-07T07:52:59;4.80;99.90
17827;DHT22;9038;48.208;16.308;2023-12-07T07:55:03;4.90;99.90
17827;DHT22;9038;48.208;16.308;2023-12-07T07:57:05;4.80;99.90
17827;DHT22;9038;48.208;16.308;2023-12-07T07:59:07;4.80;99.90
17827;DHT22;9038;48.208;16.308;2023-12-07T08:01:08;4.90;99.90
17827;DHT22;9038;48.208;16.308;2023-12-07T08:03:09;5.00;99.90
17827;DHT22;9038;48.208;16.308;2023-12-07T08:05:11;4.90;99.90
17827;DHT22;9038;48.208;16.308;2023-12-07T08:07:13;4.90;99.90
17827;DHT22;9038;48.208;16.308;2023-12-07T08:09:15;5.00;99.90
17827;DHT22;9038;48.208;16.308;2023-12-07T08:11:17;5.00;99.90
17827;DHT22;9038;48.208;16.308;2023-12-07T08:13:20;5.10;99.90
17827;DHT22;9038;48.208;16.308;2023-12-07T08:15:21;5.10;99.90
17827;DHT22;9038;48.208;16.308;2023-12-07T08:17:23;5.00;99.90
17827;DHT22;9038;48.208;16.308;2023-12-07T08:19:26;5.40;99.90
17827;DHT22;9038;48.208;16.308;2023-12-07T08:21:27;5.20;99.90
17827;DHT22;9038;48.208;16.308;2023-12-07T08:23:30;5.20;99.90
17827;DHT22;9038;48.208;16.308;2023-12-07T08:25:33;5.20;99.90
17827;DHT22;9038;48.208;16.308;2023-12-07T08:27:35;5.20;99.90
17827;DHT22;9038;48.208;16.308;2023-12-07T08:29:38;5.30;99.90
17827;DHT22;9038;48.208;16.308;2023-12-07T08:31:40;5.30;99.90
17827;DHT22;9038;48.208;16.308;2023-12-07T08:33:42;5.40;99.90
17827;DHT22;9038;48.208;16.308;2023-12-07T08:35:44;5.30;99.90
17827;DHT22;9038;48.208;16.308;2023-12-07T08:37:45;5.40;99.90
17827;DHT22;9038;48.208;16.308;2023-12-07T08:39:46;5.50;99.90
17827;DHT22;9038;48.208;16.308;2023-12-07T08:41:49;5.60;99.90
17827;DHT22;9038;48.208;16.308;2023-12-07T08:43:51;5.60;99.90
17827;DHT22;9038;48.208;16.308;2023-12-07T08:45:53;5.80;99.90
17827;DHT22;9038;48.208;16.308;2023-12-07T08:47:55;5.90;99.90
17827;DHT22;9038;48.208;16.308;2023-12-07T08:49:56;5.90;99.90
17827;DHT22;9038;48.208;16.308;2023-12-07T08:51:58;6.00;99.90
17827;DHT22;9038;48.208;16.308;2023-12-07T08:54:00;6.00;99.90
17827;DHT22;9038;48.208;16.308;2023-12-07T08:56:02;6.00;99.90
17827;DHT22;9038;48.208;16.308;2023-12-07T08:58:05;6.00;99.90
17827;DHT22;9038;48.208;16.308;2023-12-07T09:00:08;6.10;99.90
17827;DHT22;9038;48.208;16.308;2023-12-07T09:02:13;6.20;99.90
17827;DHT22;9038;48.208;16.308;2023-12-07T09:04:15;6.20;99.90
17827;DHT22;9038;48.208;16.308;2023-12-07T09:06:16;6.30;99.90
17827;DHT22;9038;48.208;16.308;2023-12-07T09:08:18;6.40;99.90
17827;DHT22;9038;48.208;16.308;2023-12-07T09:10:20;6.40;99.90
17827;DHT22;9038;48.208;16.308;2023-12-07T09:12:22;6.50;99.90
17827;DHT22;9038;48.208;16.308;2023-12-07T09:14:25;6.70;99.90
17827;DHT22;9038;48.208;16.308;2023-12-07T09:16:28;6.70;99.90
17827;DHT22;9038;48.208;16.308;2023-12-07T09:18:29;6.70;99.90
17827;DHT22;9038;48.208;16.308;2023-12-07T09:20:31;6.70;99.90
17827;DHT22;9038;48.208;16.308;2023-12-07T09:22:32;6.80;99.90
17827;DHT22;9038;48.208;16.308;2023-12-07T09:24:34;6.80;99.90
17827;DHT22;9038;48.208;16.308;2023-12-07T09:26:36;7.00;99.90
17827;DHT22;9038;48.208;16.308;2023-12-07T09:28:38;6.90;99.90
17827;DHT22;9038;48.208;16.308;2023-12-07T09:30:42;6.90;99.90
17827;DHT22;9038;48.208;16.308;2023-12-07T09:32:44;7.10;99.90
17827;DHT22;9038;48.208;16.308;2023-12-07T09:34:46;7.10;99.90
17827;DHT22;9038;48.208;16.308;2023-12-07T09:36:48;7.20;99.90
17827;DHT22;9038;48.208;16.308;2023-12-07T09:38:50;7.10;99.90
17827;DHT22;9038;48.208;16.308;2023-12-07T09:40:52;7.30;99.90
17827;DHT22;9038;48.208;16.308;2023-12-07T09:42:55;7.50;99.90
17827;DHT22;9038;48.208;16.308;2023-12-07T09:44:56;7.40;99.90
17827;DHT22;9038;48.208;16.308;2023-12-07T09:46:59;7.50;99.90
17827;DHT22;9038;48.208;16.308;2023-12-07T09:49:01;7.60;99.90
17827;DHT22;9038;48.208;16.308;2023-12-07T09:51:04;7.70;99.90
17827;DHT22;9038;48.208;16.308;2023-12-07T09:53:08;7.80;99.90
17827;DHT22;9038;48.208;16.308;2023-12-07T09:55:10;8.00;99.90
17827;DHT22;9038;48.208;16.308;2023-12-07T09:57:11;7.90;99.90
17827;DHT22;9038;48.208;16.308;2023-12-07T09:59:12;8.00;99.90
17827;DHT22;9038;48.208;16.308;2023-12-07T10:01:14;7.90;99.90
17827;DHT22;9038;48.208;16.308;2023-12-07T10:03:22;8.00;99.90
17827;DHT22;9038;48.208;16.308;2023-12-07T10:05:24;7.90;99.90
17827;DHT22;9038;48.208;16.308;2023-12-07T10:07:32;8.00;99.90
17827;DHT22;9038;48.208;16.308;2023-12-07T10:09:38;8.00;99.90
17827;DHT22;9038;48.208;16.308;2023-12-07T10:11:41;8.20;99.90
17827;DHT22;9038;48.208;16.308;2023-12-07T10:13:43;8.20;99.90
17827;DHT22;9038;48.208;16.308;2023-12-07T10:15:45;8.10;99.90
17827;DHT22;9038;48.208;16.308;2023-12-07T10:17:48;8.10;99.90
17827;DHT22;9038;48.208;16.308;2023-12-07T10:20:09;8.10;99.90
17827;DHT22;9038;48.208;16.308;2023-12-07T10:22:15;8.10;99.90
17827;DHT22;9038;48.208;16.308;2023-12-07T10:24:17;8.00;99.90
17827;DHT22;9038;48.208;16.308;2023-12-07T10:26:20;8.00;99.90
17827;DHT22;9038;48.208;16.308;2023-12-07T10:28:21;8.00;99.90
17827;DHT22;9038;48.208;16.308;2023-12-07T10:30:23;8.10;99.90
17827;DHT22;9038;48.208;16.308;2023-12-07T10:32:26;7.90;99.90
17827;DHT22;9038;48.208;16.308;2023-12-07T10:34:28;7.90;99.90
17827;DHT22;9038;48.208;16.308;2023-12-07T10:36:32;7.70;99.90
17827;DHT22;9038;48.208;16.308;2023-12-07T10:38:34;7.60;99.90
17827;DHT22;9038;48.208;16.308;2023-12-07T10:40:37;7.60;99.90
17827;DHT22;9038;48.208;16.308;2023-12-07T10:42:41;7.50;99.90
17827;DHT22;9038;48.208;16.308;2023-12-07T10:44:44;7.40;99.90
17827;DHT22;9038;48.208;16.308;2023-12-07T10:46:48;7.40;99.90
17827;DHT22;9038;48.208;16.308;2023-12-07T10:48:55;7.30;99.90
17827;DHT22;9038;48.208;16.308;2023-12-07T10:51:03;7.30;99.90
17827;DHT22;9038;48.208;16.308;2023-12-07T10:53:14;7.30;99.90
17827;DHT22;9038;48.208;16.308;2023-12-07T10:55:21;7.20;99.90
17827;DHT22;9038;48.208;16.308;2023-12-07T10:57:23;7.10;99.90
17827;DHT22;9038;48.208;16.308;2023-12-07T10:59:25;7.10;99.90
17827;DHT22;9038;48.208;16.308;2023-12-07T11:01:28;7.10;99.90
17827;DHT22;9038;48.208;16.308;2023-12-07T11:03:31;7.00;99.90
17827;DHT22;9038;48.208;16.308;2023-12-07T11:05:34;7.00;99.90
17827;DHT22;9038;48.208;16.308;2023-12-07T11:07:43;7.00;99.90
17827;DHT22;9038;48.208;16.308;2023-12-07T11:09:57;7.10;99.90
17827;DHT22;9038;48.208;16.308;2023-12-07T11:12:03;6.90;99.90
17827;DHT22;9038;48.208;16.308;2023-12-07T11:14:07;6.90;99.90
17827;DHT22;9038;48.208;16.308;2023-12-07T11:16:12;6.80;99.90
17827;DHT22;9038;48.208;16.308;2023-12-07T11:18:15;6.90;99.90
17827;DHT22;9038;48.208;16.308;2023-12-07T11:20:21;6.80;99.90
17827;DHT22;9038;48.208;16.308;2023-12-07T11:22:23;6.80;99.90
17827;DHT22;9038;48.208;16.308;2023-12-07T11:24:26;6.80;99.90
17827;DHT22;9038;48.208;16.308;2023-12-07T11:26:30;6.90;99.90
17827;DHT22;9038;48.208;16.308;2023-12-07T11:28:36;6.80;99.90
17827;DHT22;9038;48.208;16.308;2023-12-07T11:30:42;6.70;99.90
17827;DHT22;9038;48.208;16.308;2023-12-07T11:32:44;6.70;99.90
17827;DHT22;9038;48.208;16.308;2023-12-07T11:34:47;6.70;99.90
17827;DHT22;9038;48.208;16.308;2023-12-07T11:36:50;6.70;99.90
17827;DHT22;9038;48.208;16.308;2023-12-07T11:39:17;6.70;99.90
17827;DHT22;9038;48.208;16.308;2023-12-07T11:41:32;6.50;99.90
17827;DHT22;9038;48.208;16.308;2023-12-07T11:43:41;6.60;99.90
17827;DHT22;9038;48.208;16.308;2023-12-07T11:45:49;6.70;99.90
17827;DHT22;9038;48.208;16.308;2023-12-07T11:48:06;6.60;99.90
17827;DHT22;9038;48.208;16.308;2023-12-07T11:50:08;6.50;99.90
17827;DHT22;9038;48.208;16.308;2023-12-07T11:52:14;6.50;99.90
17827;DHT22;9038;48.208;16.308;2023-12-07T11:54:16;6.60;99.90
17827;DHT22;9038;48.208;16.308;2023-12-07T11:56:18;6.60;99.90
17827;DHT22;9038;48.208;16.308;2023-12-07T11:58:22;6.60;99.90
17827;DHT22;9038;48.208;16.308;2023-12-07T12:00:24;6.70;99.90
17827;DHT22;9038;48.208;16.308;2023-12-07T12:02:27;6.70;99.90
17827;DHT22;9038;48.208;16.308;2023-12-07T12:04:29;6.60;99.90
17827;DHT22;9038;48.208;16.308;2023-12-07T12:06:31;6.50;99.90
17827;DHT22;9038;48.208;16.308;2023-12-07T12:08:33;6.50;99.90
17827;DHT22;9038;48.208;16.308;2023-12-07T12:10:35;6.70;99.90
17827;DHT22;9038;48.208;16.308;2023-12-07T12:12:35;6.60;99.90
17827;DHT22;9038;48.208;16.308;2023-12-07T12:14:39;6.70;99.90
17827;DHT22;9038;48.208;16.308;2023-12-07T12:16:41;6.70;99.90
17827;DHT22;9038;48.208;16.308;2023-12-07T12:18:43;6.60;99.90
17827;DHT22;9038;48.208;16.308;2023-12-07T12:20:45;6.60;99.90
17827;DHT22;9038;48.208;16.308;2023-12-07T12:22:47;6.60;99.90
17827;DHT22;9038;48.208;16.308;2023-12-07T12:24:49;6.40;99.90
17827;DHT22;9038;48.208;16.308;2023-12-07T12:26:51;6.50;99.90
17827;DHT22;9038;48.208;16.308;2023-12-07T12:28:53;6.50;99.90
17827;DHT22;9038;48.208;16.308;2023-12-07T12:30:55;6.50;99.90
17827;DHT22;9038;48.208;16.308;2023-12-07T12:32:58;6.40;99.90
17827;DHT22;9038;48.208;16.308;2023-12-07T12:35:00;6.50;99.90
17827;DHT22;9038;48.208;16.308;2023-12-07T12:37:02;6.60;99.90
17827;DHT22;9038;48.208;16.308;2023-12-07T12:39:06;6.50;99.90
17827;DHT22;9038;48.208;16.308;2023-12-07T12:41:09;6.50;99.90
17827;DHT22;9038;48.208;16.308;2023-12-07T12:43:11;6.50;99.90
17827;DHT22;9038;48.208;16.308;2023-12-07T12:45:13;6.40;99.90
17827;DHT22;9038;48.208;16.308;2023-12-07T12:47:16;6.50;99.90
17827;DHT22;9038;48.208;16.308;2023-12-07T12:49:18;6.50;99.90
17827;DHT22;9038;48.208;16.308;2023-12-07T12:51:20;6.60;99.90
17827;DHT22;9038;48.208;16.308;2023-12-07T12:53:22;6.60;99.90
17827;DHT22;9038;48.208;16.308;2023-12-07T12:55:25;6.50;99.90
17827;DHT22;9038;48.208;16.308;2023-12-07T12:57:27;6.60;99.90
17827;DHT22;9038;48.208;16.308;2023-12-07T12:59:29;6.60;99.90
17827;DHT22;9038;48.208;16.308;2023-12-07T13:01:32;6.60;99.90
17827;DHT22;9038;48.208;16.308;2023-12-07T13:03:35;6.50;99.90
17827;DHT22;9038;48.208;16.308;2023-12-07T13:05:37;6.60;99.90